sensor_id;sensor_type;location;lat;lon;timestamp;pressure;altitude;pressure_sealevel;temperature;humidity
81243;BME280;70716;50.074;14.496;2024-01-27T00:00:39;100070.31;;;3.34;71.00
81243;BME280;70716;50.074;14.496;2024-01-27T00:03:04;100079.47;;;3.21;71.59
81243;BME280;70716;50.074;14.496;2024-01-27T00:05:30;100087.09;;;3.13;72.66
81243;BME280;70716;50.074;14.496;2024-01-27T00:07:55;100088.28;;;3.05;72.31
81243;BME280;70716;50.074;14.496;2024-01-27T00:10:24;100085.94;;;3.09;72.49
81243;BME280;70716;50.074;14.496;2024-01-27T00:12:49;100093.31;;;3.02;72.65
81243;BME280;70716;50.074;14.496;2024-01-27T00:15:15;100092.50;;;2.89;72.89
81243;BME280;70716;50.074;14.496;2024-01-27T00:17:40;100093.81;;;2.87;73.16
81243;BME280;70716;50.074;14.496;2024-01-27T00:20:06;100092.91;;;2.81;73.83
81243;BME280;70716;50.074;14.496;2024-01-27T00:22:32;100092.44;;;2.73;73.99
81243;BME280;70716;50.074;14.496;2024-01-27T00:25:00;100078.97;;;2.73;73.99
81243;BME280;70716;50.074;14.496;2024-01-27T00:27:25;100088.22;;;2.65;74.23
81243;BME280;70716;50.074;14.496;2024-01-27T00:29:53;100094.41;;;2.65;74.13
81243;BME280;70716;50.074;14.496;2024-01-27T00:32:19;100098.28;;;2.58;74.25
81243;BME280;70716;50.074;14.496;2024-01-27T00:34:44;100095.91;;;2.50;75.41
81243;BME280;70716;50.074;14.496;2024-01-27T00:37:10;100096.75;;;2.50;74.91
81243;BME280;70716;50.074;14.496;2024-01-27T00:39:35;100104.13;;;2.55;74.38
81243;BME280;70716;50.074;14.496;2024-01-27T00:42:01;100099.19;;;2.40;74.83
81243;BME280;70716;50.074;14.496;2024-01-27T00:44:27;100113.72;;;2.51;74.00
81243;BME280;70716;50.074;14.496;2024-01-27T00:46:54;100114.84;;;2.31;74.91
81243;BME280;70716;50.074;14.496;2024-01-27T00:49:19;100120.72;;;2.28;74.50
81243;BME280;70716;50.074;14.496;2024-01-27T00:51:45;100119.19;;;2.21;75.13
81243;BME280;70716;50.074;14.496;2024-01-27T00:54:10;100125.47;;;2.15;75.62
81243;BME280;70716;50.074;14.496;2024-01-27T00:56:36;100119.16;;;2.09;75.76
81243;BME280;70716;50.074;14.496;2024-01-27T00:59:01;100121.09;;;2.02;75.56
81243;BME280;70716;50.074;14.496;2024-01-27T01:01:27;100115.50;;;2.04;75.69
81243;BME280;70716;50.074;14.496;2024-01-27T01:03:52;100110.72;;;2.06;75.85
81243;BME280;70716;50.074;14.496;2024-01-27T01:06:17;100120.31;;;2.13;76.06
81243;BME280;70716;50.074;14.496;2024-01-27T01:08:43;100118.81;;;2.17;75.64
81243;BME280;70716;50.074;14.496;2024-01-27T01:11:08;100122.81;;;2.26;74.68
81243;BME280;70716;50.074;14.496;2024-01-27T01:13:34;100123.03;;;2.37;74.87
81243;BME280;70716;50.074;14.496;2024-01-27T01:16:00;100125.16;;;2.46;74.44
81243;BME280;70716;50.074;14.496;2024-01-27T01:18:25;100130.47;;;2.76;72.82
81243;BME280;70716;50.074;14.496;2024-01-27T01:20:50;100127.19;;;2.86;72.43
81243;BME280;70716;50.074;14.496;2024-01-27T01:23:16;100124.69;;;2.96;72.56
81243;BME280;70716;50.074;14.496;2024-01-27T01:25:41;100142.84;;;3.12;71.72
81243;BME280;70716;50.074;14.496;2024-01-27T01:28:07;100143.53;;;3.19;71.49
81243;BME280;70716;50.074;14.496;2024-01-27T01:30:33;100142.72;;;3.19;71.77
81243;BME280;70716;50.074;14.496;2024-01-27T01:33:02;100152.78;;;3.12;71.74
81243;BME280;70716;50.074;14.496;2024-01-27T01:35:29;100164.28;;;3.07;71.82
81243;BME280;70716;50.074;14.496;2024-01-27T01:37:54;100159.94;;;3.06;71.37
81243;BME280;70716;50.074;14.496;2024-01-27T01:40:21;100168.59;;;3.08;71.80
81243;BME280;70716;50.074;14.496;2024-01-27T01:42:50;100164.03;;;3.09;71.85
81243;BME280;70716;50.074;14.496;2024-01-27T01:45:18;100167.44;;;3.04;71.81
81243;BME280;70716;50.074;14.496;2024-01-27T01:47:44;100174.56;;;2.98;72.64
81243;BME280;70716;50.074;14.496;2024-01-27T01:50:10;100186.75;;;2.89;72.38
81243;BME280;70716;50.074;14.496;2024-01-27T01:52:36;100178.13;;;2.87;72.73
81243;BME280;70716;50.074;14.496;2024-01-27T01:55:03;100179.38;;;2.96;72.57
81243;BME280;70716;50.074;14.496;2024-01-27T01:57:28;100181.38;;;3.01;72.66
81243;BME280;70716;50.074;14.496;2024-01-27T01:59:55;100174.81;;;2.97;73.02
81243;BME280;70716;50.074;14.496;2024-01-27T02:02:20;100177.63;;;2.90;73.06
81243;BME280;70716;50.074;14.496;2024-01-27T02:04:46;100174.84;;;2.85;73.56
81243;BME280;70716;50.074;14.496;2024-01-27T02:07:12;100185.84;;;2.84;73.35
81243;BME280;70716;50.074;14.496;2024-01-27T02:09:40;100184.88;;;2.78;73.79
81243;BME280;70716;50.074;14.496;2024-01-27T02:12:08;100183.72;;;2.74;73.78
81243;BME280;70716;50.074;14.496;2024-01-27T02:14:34;100194.72;;;2.73;74.11
81243;BME280;70716;50.074;14.496;2024-01-27T02:16:59;100181.84;;;2.75;73.80
81243;BME280;70716;50.074;14.496;2024-01-27T02:19:28;100190.41;;;2.83;73.33
81243;BME280;70716;50.074;14.496;2024-01-27T02:21:55;100187.81;;;2.88;73.69
81243;BME280;70716;50.074;14.496;2024-01-27T02:24:20;100196.94;;;2.99;73.13
81243;BME280;70716;50.074;14.496;2024-01-27T02:26:45;100188.97;;;3.04;72.45
81243;BME280;70716;50.074;14.496;2024-01-27T02:29:11;100191.56;;;3.11;71.79
81243;BME280;70716;50.074;14.496;2024-01-27T02:31:36;100193.91;;;3.19;71.79
81243;BME280;70716;50.074;14.496;2024-01-27T02:34:01;100187.81;;;3.23;71.81
81243;BME280;70716;50.074;14.496;2024-01-27T02:36:27;100190.50;;;3.23;71.71
81243;BME280;70716;50.074;14.496;2024-01-27T02:38:52;100195.06;;;3.23;71.62
81243;BME280;70716;50.074;14.496;2024-01-27T02:41:18;100198.22;;;3.20;71.82
81243;BME280;70716;50.074;14.496;2024-01-27T02:43:43;100190.97;;;3.20;72.16
81243;BME280;70716;50.074;14.496;2024-01-27T02:46:12;100190.84;;;3.15;71.90
81243;BME280;70716;50.074;14.496;2024-01-27T02:48:56;100200.94;;;3.08;72.28
81243;BME280;70716;50.074;14.496;2024-01-27T02:51:21;100202.78;;;3.08;72.16
81243;BME280;70716;50.074;14.496;2024-01-27T02:53:47;100200.09;;;3.08;72.06
81243;BME280;70716;50.074;14.496;2024-01-27T02:56:12;100205.59;;;3.01;72.20
81243;BME280;70716;50.074;14.496;2024-01-27T02:58:41;100212.28;;;2.98;72.00
81243;BME280;70716;50.074;14.496;2024-01-27T03:01:06;100209.00;;;2.96;71.31
81243;BME280;70716;50.074;14.496;2024-01-27T03:03:31;100221.28;;;3.04;70.02
81243;BME280;70716;50.074;14.496;2024-01-27T03:05:57;100226.69;;;3.04;69.97
81243;BME280;70716;50.074;14.496;2024-01-27T03:08:22;100230.19;;;3.05;69.36
81243;BME280;70716;50.074;14.496;2024-01-27T03:10:47;100220.72;;;3.02;69.67
81243;BME280;70716;50.074;14.496;2024-01-27T03:13:13;100227.97;;;3.02;69.06
81243;BME280;70716;50.074;14.496;2024-01-27T03:15:38;100223.28;;;3.09;68.60
81243;BME280;70716;50.074;14.496;2024-01-27T03:18:04;100226.44;;;3.06;68.02
81243;BME280;70716;50.074;14.496;2024-01-27T03:20:29;100238.72;;;2.90;68.60
81243;BME280;70716;50.074;14.496;2024-01-27T03:22:56;100236.84;;;2.90;68.00
81243;BME280;70716;50.074;14.496;2024-01-27T03:25:22;100240.50;;;2.84;67.92
81243;BME280;70716;50.074;14.496;2024-01-27T03:27:48;100245.44;;;2.87;67.39
81243;BME280;70716;50.074;14.496;2024-01-27T03:30:14;100243.53;;;2.76;68.02
81243;BME280;70716;50.074;14.496;2024-01-27T03:32:40;100236.72;;;2.74;67.90
81243;BME280;70716;50.074;14.496;2024-01-27T03:35:06;100238.00;;;2.71;67.10
81243;BME280;70716;50.074;14.496;2024-01-27T03:37:32;100245.28;;;2.71;66.87
81243;BME280;70716;50.074;14.496;2024-01-27T03:39:57;100243.25;;;2.66;66.71
81243;BME280;70716;50.074;14.496;2024-01-27T03:42:22;100243.97;;;2.61;66.39
81243;BME280;70716;50.074;14.496;2024-01-27T03:44:49;100258.19;;;2.50;67.48
81243;BME280;70716;50.074;14.496;2024-01-27T03:47:17;100268.22;;;2.43;67.55
81243;BME280;70716;50.074;14.496;2024-01-27T03:49:42;100271.88;;;2.49;66.61
81243;BME280;70716;50.074;14.496;2024-01-27T03:52:07;100274.13;;;2.52;66.57
81243;BME280;70716;50.074;14.496;2024-01-27T03:54:33;100266.50;;;2.49;66.93
81243;BME280;70716;50.074;14.496;2024-01-27T03:56:59;100270.22;;;2.48;66.73
81243;BME280;70716;50.074;14.496;2024-01-27T03:59:25;100289.06;;;2.48;66.35
81243;BME280;70716;50.074;14.496;2024-01-27T04:01:50;100291.16;;;2.46;66.08
81243;BME280;70716;50.074;14.496;2024-01-27T04:04:16;100297.38;;;2.46;66.22
81243;BME280;70716;50.074;14.496;2024-01-27T04:06:42;100302.16;;;2.44;66.41
81243;BME280;70716;50.074;14.496;2024-01-27T04:09:09;100307.75;;;2.43;66.32
81243;BME280;70716;50.074;14.496;2024-01-27T04:11:35;100305.31;;;2.41;65.71
81243;BME280;70716;50.074;14.496;2024-01-27T04:14:01;100301.06;;;2.33;65.82
81243;BME280;70716;50.074;14.496;2024-01-27T04:16:30;100298.03;;;2.30;66.68
81243;BME280;70716;50.074;14.496;2024-01-27T04:18:59;100310.50;;;2.24;66.58
81243;BME280;70716;50.074;14.496;2024-01-27T04:21:24;100308.78;;;2.30;66.33
81243;BME280;70716;50.074;14.496;2024-01-27T04:23:49;100307.00;;;2.24;66.87
81243;BME280;70716;50.074;14.496;2024-01-27T04:26:15;100314.31;;;2.17;66.62
81243;BME280;70716;50.074;14.496;2024-01-27T04:28:41;100313.50;;;2.16;66.68
81243;BME280;70716;50.074;14.496;2024-01-27T04:31:07;100313.81;;;2.08;67.45
81243;BME280;70716;50.074;14.496;2024-01-27T04:33:33;100315.53;;;2.03;67.42
81243;BME280;70716;50.074;14.496;2024-01-27T04:35:58;100305.00;;;2.01;68.60
81243;BME280;70716;50.074;14.496;2024-01-27T04:38:24;100309.41;;;2.14;67.92
81243;BME280;70716;50.074;14.496;2024-01-27T04:40:51;100319.19;;;2.08;67.72
81243;BME280;70716;50.074;14.496;2024-01-27T04:43:17;100316.78;;;2.00;68.68
81243;BME280;70716;50.074;14.496;2024-01-27T04:45:43;100312.91;;;1.96;68.38
81243;BME280;70716;50.074;14.496;2024-01-27T04:48:08;100309.91;;;1.86;69.46
81243;BME280;70716;50.074;14.496;2024-01-27T04:50:34;100318.44;;;1.83;69.74
81243;BME280;70716;50.074;14.496;2024-01-27T04:53:00;100322.75;;;1.84;69.74
81243;BME280;70716;50.074;14.496;2024-01-27T04:55:26;100320.50;;;1.81;70.51
81243;BME280;70716;50.074;14.496;2024-01-27T04:57:52;100316.28;;;1.91;69.99
81243;BME280;70716;50.074;14.496;2024-01-27T05:00:19;100316.28;;;1.91;70.38
81243;BME280;70716;50.074;14.496;2024-01-27T05:02:45;100310.06;;;1.91;70.63
81243;BME280;70716;50.074;14.496;2024-01-27T05:05:14;100310.66;;;1.93;71.04
81243;BME280;70716;50.074;14.496;2024-01-27T05:07:39;100305.28;;;2.11;70.64
81243;BME280;70716;50.074;14.496;2024-01-27T05:10:05;100307.09;;;1.99;71.37
81243;BME280;70716;50.074;14.496;2024-01-27T05:12:30;100304.16;;;2.01;71.46
81243;BME280;70716;50.074;14.496;2024-01-27T05:14:56;100304.84;;;1.96;71.02
81243;BME280;70716;50.074;14.496;2024-01-27T05:17:21;100310.50;;;1.88;71.39
81243;BME280;70716;50.074;14.496;2024-01-27T05:19:49;100311.56;;;1.87;71.98
81243;BME280;70716;50.074;14.496;2024-01-27T05:22:14;100321.94;;;1.83;71.85
81243;BME280;70716;50.074;14.496;2024-01-27T05:24:39;100327.97;;;1.79;71.95
81243;BME280;70716;50.074;14.496;2024-01-27T05:27:05;100333.19;;;1.74;71.24
81243;BME280;70716;50.074;14.496;2024-01-27T05:29:30;100333.06;;;1.87;71.28
81243;BME280;70716;50.074;14.496;2024-01-27T05:31:55;100335.22;;;1.78;71.54
81243;BME280;70716;50.074;14.496;2024-01-27T05:34:25;100340.16;;;1.81;70.94
81243;BME280;70716;50.074;14.496;2024-01-27T05:36:51;100338.88;;;1.84;71.52
81243;BME280;70716;50.074;14.496;2024-01-27T05:39:16;100352.03;;;1.92;70.37
81243;BME280;70716;50.074;14.496;2024-01-27T05:41:41;100333.72;;;1.82;71.20
81243;BME280;70716;50.074;14.496;2024-01-27T05:44:07;100344.94;;;1.79;70.98
81243;BME280;70716;50.074;14.496;2024-01-27T05:46:32;100341.63;;;1.77;71.28
81243;BME280;70716;50.074;14.496;2024-01-27T05:48:58;100345.97;;;1.78;71.31
81243;BME280;70716;50.074;14.496;2024-01-27T05:51:29;100348.06;;;1.76;71.53
81243;BME280;70716;50.074;14.496;2024-01-27T05:54:02;100343.28;;;1.78;71.40
81243;BME280;70716;50.074;14.496;2024-01-27T05:56:27;100328.81;;;1.79;71.53
81243;BME280;70716;50.074;14.496;2024-01-27T05:58:53;100347.19;;;1.82;71.52
81243;BME280;70716;50.074;14.496;2024-01-27T06:01:18;100336.56;;;1.87;70.38
81243;BME280;70716;50.074;14.496;2024-01-27T06:03:44;100346.13;;;1.83;71.35
81243;BME280;70716;50.074;14.496;2024-01-27T06:06:10;100340.22;;;1.75;71.49
81243;BME280;70716;50.074;14.496;2024-01-27T06:08:35;100342.47;;;1.78;71.28
81243;BME280;70716;50.074;14.496;2024-01-27T06:11:01;100339.34;;;1.81;70.54
81243;BME280;70716;50.074;14.496;2024-01-27T06:13:26;100342.03;;;1.81;70.39
81243;BME280;70716;50.074;14.496;2024-01-27T06:15:52;100353.66;;;1.75;71.38
81243;BME280;70716;50.074;14.496;2024-01-27T06:18:18;100354.94;;;1.72;70.88
81243;BME280;70716;50.074;14.496;2024-01-27T06:20:44;100346.13;;;1.83;70.86
81243;BME280;70716;50.074;14.496;2024-01-27T06:23:09;100354.56;;;1.69;71.26
81243;BME280;70716;50.074;14.496;2024-01-27T06:25:35;100361.38;;;1.71;71.65
81243;BME280;70716;50.074;14.496;2024-01-27T06:28:00;100368.66;;;1.64;72.21
81243;BME280;70716;50.074;14.496;2024-01-27T06:30:25;100371.41;;;1.57;72.33
81243;BME280;70716;50.074;14.496;2024-01-27T06:32:51;100379.16;;;1.47;73.19
81243;BME280;70716;50.074;14.496;2024-01-27T06:35:17;100380.28;;;1.33;73.42
81243;BME280;70716;50.074;14.496;2024-01-27T06:37:43;100387.78;;;1.24;74.04
81243;BME280;70716;50.074;14.496;2024-01-27T06:40:09;100393.88;;;1.13;74.79
81243;BME280;70716;50.074;14.496;2024-01-27T06:42:35;100399.91;;;1.09;75.85
81243;BME280;70716;50.074;14.496;2024-01-27T06:45:01;100383.03;;;1.26;74.62
81243;BME280;70716;50.074;14.496;2024-01-27T06:47:29;100391.41;;;1.12;75.25
81243;BME280;70716;50.074;14.496;2024-01-27T06:49:55;100396.78;;;1.12;75.02
81243;BME280;70716;50.074;14.496;2024-01-27T06:52:20;100395.34;;;1.09;74.81
81243;BME280;70716;50.074;14.496;2024-01-27T06:54:45;100403.63;;;1.08;74.88
81243;BME280;70716;50.074;14.496;2024-01-27T06:59:46;100412.25;;;1.41;73.10
81243;BME280;70716;50.074;14.496;2024-01-27T07:02:13;100417.63;;;1.41;73.04
81243;BME280;70716;50.074;14.496;2024-01-27T07:04:40;100423.16;;;1.46;72.77
81243;BME280;70716;50.074;14.496;2024-01-27T07:07:06;100416.97;;;1.46;73.84
81243;BME280;70716;50.074;14.496;2024-01-27T07:09:31;100411.50;;;1.59;72.74
81243;BME280;70716;50.074;14.496;2024-01-27T07:11:57;100433.78;;;1.66;72.39
81243;BME280;70716;50.074;14.496;2024-01-27T07:14:25;100433.25;;;1.76;72.03
81243;BME280;70716;50.074;14.496;2024-01-27T07:16:51;100434.41;;;1.86;71.17
81243;BME280;70716;50.074;14.496;2024-01-27T07:19:16;100440.31;;;1.95;70.77
81243;BME280;70716;50.074;14.496;2024-01-27T07:21:41;100445.41;;;2.03;71.23
81243;BME280;70716;50.074;14.496;2024-01-27T07:24:07;100448.03;;;2.10;70.86
81243;BME280;70716;50.074;14.496;2024-01-27T07:26:32;100460.66;;;2.09;70.70
81243;BME280;70716;50.074;14.496;2024-01-27T07:28:58;100461.22;;;2.18;70.83
81243;BME280;70716;50.074;14.496;2024-01-27T07:31:23;100456.38;;;2.26;70.31
81243;BME280;70716;50.074;14.496;2024-01-27T07:33:50;100461.19;;;2.36;70.05
81243;BME280;70716;50.074;14.496;2024-01-27T07:36:15;100463.69;;;2.56;70.05
81243;BME280;70716;50.074;14.496;2024-01-27T07:38:42;100474.22;;;2.57;69.72
81243;BME280;70716;50.074;14.496;2024-01-27T07:41:07;100476.53;;;2.72;68.31
81243;BME280;70716;50.074;14.496;2024-01-27T07:43:33;100477.13;;;2.74;68.05
81243;BME280;70716;50.074;14.496;2024-01-27T07:46:01;100479.09;;;2.85;68.17
81243;BME280;70716;50.074;14.496;2024-01-27T07:48:30;100480.25;;;2.89;67.99
81243;BME280;70716;50.074;14.496;2024-01-27T07:50:58;100487.50;;;2.89;67.63
81243;BME280;70716;50.074;14.496;2024-01-27T07:53:23;100482.59;;;2.86;67.61
81243;BME280;70716;50.074;14.496;2024-01-27T07:55:49;100490.94;;;2.96;67.94
81243;BME280;70716;50.074;14.496;2024-01-27T07:58:16;100489.66;;;2.98;67.45
81243;BME280;70716;50.074;14.496;2024-01-27T08:00:41;100492.03;;;3.07;67.44
81243;BME280;70716;50.074;14.496;2024-01-27T08:03:09;100499.66;;;3.10;67.64
81243;BME280;70716;50.074;14.496;2024-01-27T08:05:35;100501.31;;;3.11;68.05
81243;BME280;70716;50.074;14.496;2024-01-27T08:08:00;100499.06;;;3.08;67.70
81243;BME280;70716;50.074;14.496;2024-01-27T08:10:26;100496.81;;;3.23;66.49
81243;BME280;70716;50.074;14.496;2024-01-27T08:12:51;100507.88;;;3.33;67.35
81243;BME280;70716;50.074;14.496;2024-01-27T08:15:16;100510.84;;;3.43;67.50
81243;BME280;70716;50.074;14.496;2024-01-27T08:17:42;100507.69;;;3.46;66.77
81243;BME280;70716;50.074;14.496;2024-01-27T08:20:08;100506.75;;;3.52;66.93
81243;BME280;70716;50.074;14.496;2024-01-27T08:22:33;100511.97;;;3.36;66.84
81243;BME280;70716;50.074;14.496;2024-01-27T08:25:03;100523.13;;;3.51;67.05
81243;BME280;70716;50.074;14.496;2024-01-27T08:27:28;100520.59;;;3.56;66.29
81243;BME280;70716;50.074;14.496;2024-01-27T08:29:54;100522.13;;;3.63;66.28
81243;BME280;70716;50.074;14.496;2024-01-27T08:32:19;100525.88;;;3.62;66.21
81243;BME280;70716;50.074;14.496;2024-01-27T08:34:45;100519.31;;;3.58;66.11
81243;BME280;70716;50.074;14.496;2024-01-27T08:37:17;100535.06;;;3.73;66.05
81243;BME280;70716;50.074;14.496;2024-01-27T08:39:46;100538.16;;;3.88;66.32
81243;BME280;70716;50.074;14.496;2024-01-27T08:42:11;100538.19;;;4.00;65.19
81243;BME280;70716;50.074;14.496;2024-01-27T08:44:38;100539.59;;;4.03;65.77
81243;BME280;70716;50.074;14.496;2024-01-27T08:47:06;100537.13;;;4.24;64.26
81243;BME280;70716;50.074;14.496;2024-01-27T08:49:31;100532.44;;;4.43;64.18
81243;BME280;70716;50.074;14.496;2024-01-27T08:51:57;100541.34;;;4.67;63.98
81243;BME280;70716;50.074;14.496;2024-01-27T08:54:26;100538.38;;;4.80;63.49
81243;BME280;70716;50.074;14.496;2024-01-27T08:56:51;100542.84;;;4.98;62.38
81243;BME280;70716;50.074;14.496;2024-01-27T08:59:16;100546.84;;;5.24;61.87
81243;BME280;70716;50.074;14.496;2024-01-27T09:01:42;100553.69;;;5.55;61.70
81243;BME280;70716;50.074;14.496;2024-01-27T09:04:08;100547.59;;;5.48;59.76
81243;BME280;70716;50.074;14.496;2024-01-27T09:06:34;100553.06;;;5.64;58.88
81243;BME280;70716;50.074;14.496;2024-01-27T09:08:59;100559.06;;;5.83;59.35
81243;BME280;70716;50.074;14.496;2024-01-27T09:11:26;100554.72;;;5.82;58.10
81243;BME280;70716;50.074;14.496;2024-01-27T09:13:55;100557.00;;;6.02;58.02
81243;BME280;70716;50.074;14.496;2024-01-27T09:16:20;100554.13;;;6.25;57.58
81243;BME280;70716;50.074;14.496;2024-01-27T09:18:49;100557.47;;;6.49;56.65
81243;BME280;70716;50.074;14.496;2024-01-27T09:21:16;100560.28;;;6.93;56.32
81243;BME280;70716;50.074;14.496;2024-01-27T09:23:46;100559.31;;;7.04;55.34
81243;BME280;70716;50.074;14.496;2024-01-27T09:26:12;100562.66;;;7.33;54.71
81243;BME280;70716;50.074;14.496;2024-01-27T09:28:38;100568.88;;;7.55;53.80
81243;BME280;70716;50.074;14.496;2024-01-27T09:31:04;100552.00;;;7.26;53.67
81243;BME280;70716;50.074;14.496;2024-01-27T09:33:29;100568.16;;;7.65;53.57
81243;BME280;70716;50.074;14.496;2024-01-27T09:35:54;100573.00;;;7.85;52.99
81243;BME280;70716;50.074;14.496;2024-01-27T09:38:20;100576.22;;;7.82;53.36
81243;BME280;70716;50.074;14.496;2024-01-27T09:40:46;100578.56;;;7.73;51.97
81243;BME280;70716;50.074;14.496;2024-01-27T09:43:13;100581.53;;;7.23;53.04
81243;BME280;70716;50.074;14.496;2024-01-27T09:45:42;100582.38;;;7.07;54.02
81243;BME280;70716;50.074;14.496;2024-01-27T09:48:10;100586.75;;;7.08;53.76
81243;BME280;70716;50.074;14.496;2024-01-27T09:50:41;100589.00;;;6.94;54.17
81243;BME280;70716;50.074;14.496;2024-01-27T09:53:08;100596.00;;;6.90;54.74
81243;BME280;70716;50.074;14.496;2024-01-27T09:55:35;100601.69;;;6.72;55.28
81243;BME280;70716;50.074;14.496;2024-01-27T09:58:03;100608.19;;;6.54;55.51
81243;BME280;70716;50.074;14.496;2024-01-27T10:00:29;100606.25;;;6.33;56.09
81243;BME280;70716;50.074;14.496;2024-01-27T10:02:59;100598.53;;;6.24;56.19
81243;BME280;70716;50.074;14.496;2024-01-27T10:05:28;100592.28;;;6.24;57.13
81243;BME280;70716;50.074;14.496;2024-01-27T10:07:55;100600.91;;;6.21;57.29
81243;BME280;70716;50.074;14.496;2024-01-27T10:10:20;100588.81;;;6.12;57.38
81243;BME280;70716;50.074;14.496;2024-01-27T10:12:51;100593.00;;;6.03;57.15
81243;BME280;70716;50.074;14.496;2024-01-27T10:15:22;100595.38;;;5.99;57.51
81243;BME280;70716;50.074;14.496;2024-01-27T10:17:52;100586.44;;;5.87;57.26
81243;BME280;70716;50.074;14.496;2024-01-27T10:20:17;100583.38;;;5.95;57.31
81243;BME280;70716;50.074;14.496;2024-01-27T10:22:45;100590.63;;;6.06;57.50
81243;BME280;70716;50.074;14.496;2024-01-27T10:25:11;100584.97;;;6.08;57.07
81243;BME280;70716;50.074;14.496;2024-01-27T10:27:37;100577.72;;;5.96;57.72
81243;BME280;70716;50.074;14.496;2024-01-27T10:30:04;100568.22;;;5.94;57.74
81243;BME280;70716;50.074;14.496;2024-01-27T10:32:30;100575.03;;;5.96;58.20
81243;BME280;70716;50.074;14.496;2024-01-27T10:35:07;100572.56;;;5.95;57.64
81243;BME280;70716;50.074;14.496;2024-01-27T10:37:37;100577.16;;;5.94;57.90
81243;BME280;70716;50.074;14.496;2024-01-27T10:40:04;100580.19;;;5.98;58.02
81243;BME280;70716;50.074;14.496;2024-01-27T10:42:30;100573.13;;;5.97;58.25
81243;BME280;70716;50.074;14.496;2024-01-27T10:44:59;100577.50;;;5.86;58.04
81243;BME280;70716;50.074;14.496;2024-01-27T10:47:29;100581.50;;;5.95;57.84
81243;BME280;70716;50.074;14.496;2024-01-27T10:49:59;100577.66;;;6.08;57.91
81243;BME280;70716;50.074;14.496;2024-01-27T10:52:28;100568.50;;;6.26;57.67
81243;BME280;70716;50.074;14.496;2024-01-27T10:55:01;100576.19;;;6.17;57.99
81243;BME280;70716;50.074;14.496;2024-01-27T10:57:29;100573.50;;;6.34;58.07
81243;BME280;70716;50.074;14.496;2024-01-27T10:59:58;100569.66;;;6.30;57.48
81243;BME280;70716;50.074;14.496;2024-01-27T11:02:25;100577.34;;;6.21;57.11
81243;BME280;70716;50.074;14.496;2024-01-27T11:04:51;100575.19;;;6.07;57.25
81243;BME280;70716;50.074;14.496;2024-01-27T11:07:20;100579.56;;;6.08;57.86
81243;BME280;70716;50.074;14.496;2024-01-27T11:09:49;100576.13;;;6.12;57.86
81243;BME280;70716;50.074;14.496;2024-01-27T11:12:16;100584.22;;;6.12;57.77
81243;BME280;70716;50.074;14.496;2024-01-27T11:14:42;100581.84;;;6.16;58.23
81243;BME280;70716;50.074;14.496;2024-01-27T11:17:08;100576.59;;;6.09;57.71
81243;BME280;70716;50.074;14.496;2024-01-27T11:19:33;100577.94;;;6.23;57.98
81243;BME280;70716;50.074;14.496;2024-01-27T11:22:17;100576.50;;;6.38;57.00
81243;BME280;70716;50.074;14.496;2024-01-27T11:24:50;100564.03;;;6.37;56.28
81243;BME280;70716;50.074;14.496;2024-01-27T11:27:16;100576.19;;;6.51;56.73
81243;BME280;70716;50.074;14.496;2024-01-27T11:29:47;100568.06;;;6.51;56.61
81243;BME280;70716;50.074;14.496;2024-01-27T11:32:13;100574.69;;;6.60;56.41
81243;BME280;70716;50.074;14.496;2024-01-27T11:34:44;100569.19;;;6.55;56.13
81243;BME280;70716;50.074;14.496;2024-01-27T11:37:16;100577.66;;;6.58;56.53
81243;BME280;70716;50.074;14.496;2024-01-27T11:39:42;100578.47;;;6.76;55.76
81243;BME280;70716;50.074;14.496;2024-01-27T11:42:12;100586.09;;;6.79;56.05
81243;BME280;70716;50.074;14.496;2024-01-27T11:44:46;100573.84;;;6.93;55.92
81243;BME280;70716;50.074;14.496;2024-01-27T11:47:16;100571.47;;;7.02;55.41
81243;BME280;70716;50.074;14.496;2024-01-27T11:49:53;100564.69;;;7.21;55.23
81243;BME280;70716;50.074;14.496;2024-01-27T11:52:19;100561.69;;;6.79;55.11
81243;BME280;70716;50.074;14.496;2024-01-27T11:54:56;100581.19;;;6.97;55.50
81243;BME280;70716;50.074;14.496;2024-01-27T11:57:22;100577.03;;;7.12;55.09
81243;BME280;70716;50.074;14.496;2024-01-27T11:59:50;100572.38;;;7.07;54.95
81243;BME280;70716;50.074;14.496;2024-01-27T12:02:15;100559.25;;;7.21;54.80
81243;BME280;70716;50.074;14.496;2024-01-27T12:04:41;100565.44;;;7.38;53.09
81243;BME280;70716;50.074;14.496;2024-01-27T12:07:10;100561.47;;;7.46;53.61
81243;BME280;70716;50.074;14.496;2024-01-27T12:09:36;100566.94;;;7.51;54.42
81243;BME280;70716;50.074;14.496;2024-01-27T12:12:03;100582.09;;;7.47;53.82
81243;BME280;70716;50.074;14.496;2024-01-27T12:14:51;100570.38;;;7.41;53.41
81243;BME280;70716;50.074;14.496;2024-01-27T12:17:17;100569.34;;;7.47;53.10
81243;BME280;70716;50.074;14.496;2024-01-27T12:19:50;100569.00;;;7.66;53.48
81243;BME280;70716;50.074;14.496;2024-01-27T12:24:48;100562.53;;;7.72;53.23
81243;BME280;70716;50.074;14.496;2024-01-27T12:27:16;100554.91;;;7.42;54.20
81243;BME280;70716;50.074;14.496;2024-01-27T12:29:42;100550.81;;;7.17;54.21
81243;BME280;70716;50.074;14.496;2024-01-27T12:32:08;100558.94;;;7.17;55.50
81243;BME280;70716;50.074;14.496;2024-01-27T12:34:40;100560.66;;;7.23;55.29
81243;BME280;70716;50.074;14.496;2024-01-27T12:37:11;100544.06;;;7.20;54.22
81243;BME280;70716;50.074;14.496;2024-01-27T12:39:37;100546.66;;;7.10;54.43
81243;BME280;70716;50.074;14.496;2024-01-27T12:42:03;100550.78;;;6.95;55.82
81243;BME280;70716;50.074;14.496;2024-01-27T12:44:32;100555.41;;;6.95;55.68
81243;BME280;70716;50.074;14.496;2024-01-27T12:46:57;100565.41;;;6.94;55.76
81243;BME280;70716;50.074;14.496;2024-01-27T12:49:23;100556.78;;;6.97;56.40
81243;BME280;70716;50.074;14.496;2024-01-27T12:51:48;100556.03;;;7.02;56.03